Stk-1020 — UCYT — position and weather

sailwx.info

Track history (hours):
 
Tides and Currents Weather Stations Pressure Air Temp Water Temp Dewpoint Dewpoint Depression Visibility Wind Speed Wind Dir Waves Ship Positions

Stk-1020

Last reported at 2017-Oct-27 01:27 UTC. Time now 2017-Dec-17 02:20 UTC.
Position N 54°40' E 019°49'.
Warning: this ship's position is 51 days out of date.

Length 82 m; draft 2.6 m.

Type: Cargo ship. MMSI: 273362200.

Date/timePositionNaut miles runAvg speedWind from/ knotsBaromVisibWave heightAir tempDewpointWater temp
2017-Oct-27 01:27N 54°40' E 019°49'2 2.6
2017-Oct-27 00:49N 54°38' E 019°48'0 0.3
2017-Oct-27 00:23N 54°38' E 019°48'0 0.0
2017-Oct-27 00:00N 54°38' E 019°48'0 0.0
2017-Oct-26 23:30N 54°38' E 019°48'0 0.0
2017-Oct-26 22:59N 54°38' E 019°48'0 0.0
2017-Oct-26 22:28N 54°38' E 019°48'  
2017-Oct-20 22:48N 54°57' E 019°38'4 7.2
2017-Oct-20 22:16N 54°54' E 019°38'2 7.0
2017-Oct-20 22:00N 54°52' E 019°38'4 7.2
2017-Oct-20 21:30N 54°48' E 019°38'4 7.3
2017-Oct-20 21:00N 54°44' E 019°38'4 7.3
2017-Oct-20 20:30N 54°42' E 019°43'5 7.1
2017-Oct-20 19:52N 54°39' E 019°49'4 0.4
2017-Oct-20 11:01N 54°38' E 019°55'0 0.0
2017-Oct-20 10:52N 54°38' E 019°55'0 0.0
2017-Oct-20 08:03N 54°38' E 019°55'0 0.0
2017-Oct-20 06:31N 54°38' E 019°55'0 0.1
2017-Oct-20 06:28N 54°38' E 019°55'0 0.0
2017-Oct-20 05:59N 54°38' E 019°55'0 0.0
2017-Oct-20 05:29N 54°38' E 019°55'0 0.0
2017-Oct-20 04:53N 54°38' E 019°55'0 0.0
2017-Oct-20 04:30N 54°38' E 019°55'0 0.0
2017-Oct-20 04:00N 54°38' E 019°55'0 0.0
2017-Oct-20 03:30N 54°38' E 019°55'0 0.0
2017-Oct-20 02:58N 54°38' E 019°55'0 0.0
2017-Oct-20 02:16N 54°38' E 019°55'0 0.0
2017-Oct-20 01:55N 54°38' E 019°55'0 0.0
2017-Oct-20 01:29N 54°38' E 019°55'0 0.0
2017-Oct-20 00:56N 54°38' E 019°55'0 0.0
2017-Oct-20 00:29N 54°38' E 019°55'0 0.0
2017-Oct-19 23:57N 54°38' E 019°55'0 0.0
2017-Oct-19 23:30N 54°38' E 019°55'0 0.0
2017-Oct-19 23:00N 54°38' E 019°55'0 0.0
2017-Oct-19 21:49N 54°38' E 019°55'0 0.0
2017-Oct-19 21:30N 54°38' E 019°55'12 5.3
2017-Oct-19 19:14N 54°44' E 019°37'2 7.9
2017-Oct-19 18:58N 54°46' E 019°37'4 7.9
2017-Oct-19 18:27N 54°50' E 019°37'13 8.1
2017-Oct-19 16:50N 55°03' E 019°37'4 7.9
2017-Oct-19 16:20N 55°07' E 019°39'5 8.0
2017-Oct-19 15:43N 55°12' E 019°42'5 8.0
2017-Oct-19 15:09N 55°16' E 019°45'1 8.1
2017-Oct-19 15:00N 55°17' E 019°45'281 5.9
2017-Oct-17 15:09N 59°37' E 023°05'1 5.9
2017-Oct-17 15:00N 59°37' E 023°06'3 6.1
2017-Oct-17 14:30N 59°38' E 023°12'3 6.5
2017-Oct-17 14:00N 59°39' E 023°19'4 7.1
2017-Oct-17 13:30N 59°40' E 023°25'4 7.6
2017-Oct-17 13:00N 59°41' E 023°33'4 7.8
2017-Oct-17 12:30N 59°42' E 023°40'4 7.9
2017-Oct-17 11:59N 59°43' E 023°48'4 7.9
2017-Oct-17 11:28N 59°44' E 023°56'4 7.8
2017-Oct-17 11:00N 59°45' E 024°03'8 7.9
2017-Oct-17 09:59N 59°47' E 024°18'4 7.6
2017-Oct-17 09:30N 59°48' E 024°25'4 7.3
2017-Oct-17 09:00N 59°49' E 024°32'4 7.2
2017-Oct-17 08:30N 59°49' E 024°39'3 6.8
2017-Oct-17 08:00N 59°50' E 024°46'3 6.3
2017-Oct-17 07:30N 59°51' E 024°52'  
Track history (hours):
 
Tides and Currents Weather Stations Pressure Air Temp Water Temp Dewpoint Dewpoint Depression Visibility Wind Speed Wind Dir Waves Ship Positions

Stk-1020

Last reported at 2017-Oct-27 01:27 UTC. Time now 2017-Dec-17 02:20 UTC.
Position N 54°40' E 019°49'.
Warning: this ship's position is 51 days out of date.

Length 82 m; draft 2.6 m.

Type: Cargo ship. MMSI: 273362200.

Date/timePositionNaut miles runAvg speedWind from/ knotsBaromVisibWave heightAir tempDewpointWater temp
2017-Oct-27 01:27N 54°40' E 019°49'2 2.6
2017-Oct-27 00:49N 54°38' E 019°48'0 0.3
2017-Oct-27 00:23N 54°38' E 019°48'0 0.0
2017-Oct-27 00:00N 54°38' E 019°48'0 0.0
2017-Oct-26 23:30N 54°38' E 019°48'0 0.0
2017-Oct-26 22:59N 54°38' E 019°48'0 0.0
2017-Oct-26 22:28N 54°38' E 019°48'  
2017-Oct-20 22:48N 54°57' E 019°38'4 7.2
2017-Oct-20 22:16N 54°54' E 019°38'2 7.0
2017-Oct-20 22:00N 54°52' E 019°38'4 7.2
2017-Oct-20 21:30N 54°48' E 019°38'4 7.3
2017-Oct-20 21:00N 54°44' E 019°38'4 7.3
2017-Oct-20 20:30N 54°42' E 019°43'5 7.1
2017-Oct-20 19:52N 54°39' E 019°49'4 0.4
2017-Oct-20 11:01N 54°38' E 019°55'0 0.0
2017-Oct-20 10:52N 54°38' E 019°55'0 0.0
2017-Oct-20 08:03N 54°38' E 019°55'0 0.0
2017-Oct-20 06:31N 54°38' E 019°55'0 0.1
2017-Oct-20 06:28N 54°38' E 019°55'0 0.0
2017-Oct-20 05:59N 54°38' E 019°55'0 0.0
2017-Oct-20 05:29N 54°38' E 019°55'0 0.0
2017-Oct-20 04:53N 54°38' E 019°55'0 0.0
2017-Oct-20 04:30N 54°38' E 019°55'0 0.0
2017-Oct-20 04:00N 54°38' E 019°55'0 0.0
2017-Oct-20 03:30N 54°38' E 019°55'0 0.0
2017-Oct-20 02:58N 54°38' E 019°55'0 0.0
2017-Oct-20 02:16N 54°38' E 019°55'0 0.0
2017-Oct-20 01:55N 54°38' E 019°55'0 0.0
2017-Oct-20 01:29N 54°38' E 019°55'0 0.0
2017-Oct-20 00:56N 54°38' E 019°55'0 0.0
2017-Oct-20 00:29N 54°38' E 019°55'0 0.0
2017-Oct-19 23:57N 54°38' E 019°55'0 0.0
2017-Oct-19 23:30N 54°38' E 019°55'0 0.0
2017-Oct-19 23:00N 54°38' E 019°55'0 0.0
2017-Oct-19 21:49N 54°38' E 019°55'0 0.0
2017-Oct-19 21:30N 54°38' E 019°55'12 5.3
2017-Oct-19 19:14N 54°44' E 019°37'2 7.9
2017-Oct-19 18:58N 54°46' E 019°37'4 7.9
2017-Oct-19 18:27N 54°50' E 019°37'13 8.1
2017-Oct-19 16:50N 55°03' E 019°37'4 7.9
2017-Oct-19 16:20N 55°07' E 019°39'5 8.0
2017-Oct-19 15:43N 55°12' E 019°42'5 8.0
2017-Oct-19 15:09N 55°16' E 019°45'1 8.1
2017-Oct-19 15:00N 55°17' E 019°45'281 5.9
2017-Oct-17 15:09N 59°37' E 023°05'1 5.9
2017-Oct-17 15:00N 59°37' E 023°06'3 6.1
2017-Oct-17 14:30N 59°38' E 023°12'3 6.5
2017-Oct-17 14:00N 59°39' E 023°19'4 7.1
2017-Oct-17 13:30N 59°40' E 023°25'4 7.6
2017-Oct-17 13:00N 59°41' E 023°33'4 7.8
2017-Oct-17 12:30N 59°42' E 023°40'4 7.9
2017-Oct-17 11:59N 59°43' E 023°48'4 7.9
2017-Oct-17 11:28N 59°44' E 023°56'4 7.8
2017-Oct-17 11:00N 59°45' E 024°03'8 7.9
2017-Oct-17 09:59N 59°47' E 024°18'4 7.6
2017-Oct-17 09:30N 59°48' E 024°25'4 7.3
2017-Oct-17 09:00N 59°49' E 024°32'4 7.2
2017-Oct-17 08:30N 59°49' E 024°39'3 6.8
2017-Oct-17 08:00N 59°50' E 024°46'3 6.3
2017-Oct-17 07:30N 59°51' E 024°52'  

Dump ship's entire track history